sensor_id;sensor_type;location;lat;lon;timestamp;P1;durP1;ratioP1;P2;durP2;ratioP2
38911;SDS011;28444;48.056;14.408;2023-05-07T00:01:00;5.55;;;3.50;;
38911;SDS011;28444;48.056;14.408;2023-05-07T00:03:48;3.40;;;3.10;;
38911;SDS011;28444;48.056;14.408;2023-05-07T00:06:35;7.80;;;3.28;;
38911;SDS011;28444;48.056;14.408;2023-05-07T00:09:22;8.57;;;3.80;;
38911;SDS011;28444;48.056;14.408;2023-05-07T00:12:09;5.68;;;3.30;;
38911;SDS011;28444;48.056;14.408;2023-05-07T00:14:57;6.70;;;3.85;;
38911;SDS011;28444;48.056;14.408;2023-05-07T00:17:46;6.40;;;3.40;;
38911;SDS011;28444;48.056;14.408;2023-05-07T00:20:33;7.25;;;3.97;;
38911;SDS011;28444;48.056;14.408;2023-05-07T00:23:22;4.20;;;3.25;;
38911;SDS011;28444;48.056;14.408;2023-05-07T00:26:09;6.05;;;4.28;;
38911;SDS011;28444;48.056;14.408;2023-05-07T00:28:57;5.07;;;3.95;;
38911;SDS011;28444;48.056;14.408;2023-05-07T00:31:48;5.78;;;3.88;;
38911;SDS011;28444;48.056;14.408;2023-05-07T00:34:36;6.38;;;4.03;;
38911;SDS011;28444;48.056;14.408;2023-05-07T00:37:23;5.68;;;3.95;;
38911;SDS011;28444;48.056;14.408;2023-05-07T00:40:10;6.72;;;4.70;;
38911;SDS011;28444;48.056;14.408;2023-05-07T00:42:58;9.25;;;4.78;;
38911;SDS011;28444;48.056;14.408;2023-05-07T00:45:46;8.32;;;4.45;;
38911;SDS011;28444;48.056;14.408;2023-05-07T00:48:33;14.70;;;5.07;;
38911;SDS011;28444;48.056;14.408;2023-05-07T00:51:20;5.20;;;4.70;;
38911;SDS011;28444;48.056;14.408;2023-05-07T00:54:07;10.82;;;4.75;;
38911;SDS011;28444;48.056;14.408;2023-05-07T00:56:55;7.97;;;5.00;;
38911;SDS011;28444;48.056;14.408;2023-05-07T00:59:42;11.75;;;4.97;;
38911;SDS011;28444;48.056;14.408;2023-05-07T01:02:29;7.00;;;5.13;;
38911;SDS011;28444;48.056;14.408;2023-05-07T01:05:17;7.65;;;5.15;;
38911;SDS011;28444;48.056;14.408;2023-05-07T01:08:06;7.20;;;5.80;;
38911;SDS011;28444;48.056;14.408;2023-05-07T01:10:53;6.70;;;5.15;;
38911;SDS011;28444;48.056;14.408;2023-05-07T01:13:42;8.38;;;4.82;;
38911;SDS011;28444;48.056;14.408;2023-05-07T01:16:29;6.32;;;5.00;;
38911;SDS011;28444;48.056;14.408;2023-05-07T01:19:19;9.43;;;4.72;;
38911;SDS011;28444;48.056;14.408;2023-05-07T01:22:10;8.15;;;4.68;;
38911;SDS011;28444;48.056;14.408;2023-05-07T01:24:58;9.77;;;5.07;;
38911;SDS011;28444;48.056;14.408;2023-05-07T01:27:46;6.90;;;4.72;;
38911;SDS011;28444;48.056;14.408;2023-05-07T01:30:33;8.00;;;4.88;;
38911;SDS011;28444;48.056;14.408;2023-05-07T01:33:22;6.32;;;5.07;;
38911;SDS011;28444;48.056;14.408;2023-05-07T01:36:11;6.38;;;5.50;;
38911;SDS011;28444;48.056;14.408;2023-05-07T01:38:59;6.72;;;4.90;;
38911;SDS011;28444;48.056;14.408;2023-05-07T01:41:47;6.25;;;4.53;;
38911;SDS011;28444;48.056;14.408;2023-05-07T01:44:34;7.97;;;4.90;;
38911;SDS011;28444;48.056;14.408;2023-05-07T01:47:21;6.25;;;4.55;;
38911;SDS011;28444;48.056;14.408;2023-05-07T01:50:09;7.55;;;4.38;;
38911;SDS011;28444;48.056;14.408;2023-05-07T01:52:56;7.90;;;3.67;;
38911;SDS011;28444;48.056;14.408;2023-05-07T01:55:43;7.53;;;4.57;;
38911;SDS011;28444;48.056;14.408;2023-05-07T01:58:30;5.43;;;3.97;;
38911;SDS011;28444;48.056;14.408;2023-05-07T02:01:17;4.50;;;3.65;;
38911;SDS011;28444;48.056;14.408;2023-05-07T02:04:04;7.22;;;4.60;;
38911;SDS011;28444;48.056;14.408;2023-05-07T02:06:51;6.95;;;4.75;;
38911;SDS011;28444;48.056;14.408;2023-05-07T02:09:39;8.57;;;3.78;;
38911;SDS011;28444;48.056;14.408;2023-05-07T02:12:26;4.97;;;4.13;;
38911;SDS011;28444;48.056;14.408;2023-05-07T02:15:13;5.28;;;3.47;;
38911;SDS011;28444;48.056;14.408;2023-05-07T02:18:02;7.47;;;3.58;;
38911;SDS011;28444;48.056;14.408;2023-05-07T02:20:50;4.55;;;3.60;;
38911;SDS011;28444;48.056;14.408;2023-05-07T02:23:37;5.28;;;3.63;;
38911;SDS011;28444;48.056;14.408;2023-05-07T02:26:24;8.13;;;3.65;;
38911;SDS011;28444;48.056;14.408;2023-05-07T02:29:12;5.80;;;4.40;;
38911;SDS011;28444;48.056;14.408;2023-05-07T02:31:59;5.40;;;3.80;;
38911;SDS011;28444;48.056;14.408;2023-05-07T02:34:46;5.10;;;4.07;;
38911;SDS011;28444;48.056;14.408;2023-05-07T02:37:33;7.32;;;4.55;;
38911;SDS011;28444;48.056;14.408;2023-05-07T02:40:20;8.60;;;5.00;;
38911;SDS011;28444;48.056;14.408;2023-05-07T02:43:07;6.00;;;4.10;;
38911;SDS011;28444;48.056;14.408;2023-05-07T02:46:04;6.18;;;4.43;;
38911;SDS011;28444;48.056;14.408;2023-05-07T02:48:52;5.25;;;4.57;;
38911;SDS011;28444;48.056;14.408;2023-05-07T02:51:39;9.48;;;5.03;;
38911;SDS011;28444;48.056;14.408;2023-05-07T02:54:26;5.32;;;4.70;;
38911;SDS011;28444;48.056;14.408;2023-05-07T02:57:13;7.72;;;5.45;;
38911;SDS011;28444;48.056;14.408;2023-05-07T03:00:06;10.02;;;5.82;;
38911;SDS011;28444;48.056;14.408;2023-05-07T03:02:57;6.68;;;5.50;;
38911;SDS011;28444;48.056;14.408;2023-05-07T03:05:44;10.25;;;6.38;;
38911;SDS011;28444;48.056;14.408;2023-05-07T03:08:31;7.88;;;6.43;;
38911;SDS011;28444;48.056;14.408;2023-05-07T03:11:21;8.57;;;5.93;;
38911;SDS011;28444;48.056;14.408;2023-05-07T03:14:08;8.27;;;6.18;;
38911;SDS011;28444;48.056;14.408;2023-05-07T03:16:56;11.15;;;6.32;;
38911;SDS011;28444;48.056;14.408;2023-05-07T03:19:42;9.65;;;5.70;;
38911;SDS011;28444;48.056;14.408;2023-05-07T03:22:31;10.85;;;6.00;;
38911;SDS011;28444;48.056;14.408;2023-05-07T03:25:18;9.68;;;5.75;;
38911;SDS011;28444;48.056;14.408;2023-05-07T03:28:04;8.57;;;6.35;;
38911;SDS011;28444;48.056;14.408;2023-05-07T03:30:52;9.18;;;5.80;;
38911;SDS011;28444;48.056;14.408;2023-05-07T03:33:49;7.28;;;5.80;;
38911;SDS011;28444;48.056;14.408;2023-05-07T03:36:37;9.20;;;6.05;;
38911;SDS011;28444;48.056;14.408;2023-05-07T03:39:24;7.18;;;5.30;;
38911;SDS011;28444;48.056;14.408;2023-05-07T03:42:11;9.05;;;5.38;;
38911;SDS011;28444;48.056;14.408;2023-05-07T03:44:58;14.15;;;5.80;;
38911;SDS011;28444;48.056;14.408;2023-05-07T03:47:45;8.10;;;5.45;;
38911;SDS011;28444;48.056;14.408;2023-05-07T03:50:32;7.63;;;5.18;;
38911;SDS011;28444;48.056;14.408;2023-05-07T03:53:19;12.35;;;5.60;;
38911;SDS011;28444;48.056;14.408;2023-05-07T03:56:06;8.65;;;5.53;;
38911;SDS011;28444;48.056;14.408;2023-05-07T03:58:53;10.23;;;6.20;;
38911;SDS011;28444;48.056;14.408;2023-05-07T04:01:40;8.23;;;5.80;;
38911;SDS011;28444;48.056;14.408;2023-05-07T04:04:28;7.97;;;6.25;;
38911;SDS011;28444;48.056;14.408;2023-05-07T04:07:19;8.95;;;5.63;;
38911;SDS011;28444;48.056;14.408;2023-05-07T04:10:06;8.48;;;5.65;;
38911;SDS011;28444;48.056;14.408;2023-05-07T04:12:53;7.40;;;5.38;;
38911;SDS011;28444;48.056;14.408;2023-05-07T04:15:40;9.48;;;4.80;;
38911;SDS011;28444;48.056;14.408;2023-05-07T04:18:27;7.22;;;4.95;;
38911;SDS011;28444;48.056;14.408;2023-05-07T04:21:16;7.70;;;4.18;;
38911;SDS011;28444;48.056;14.408;2023-05-07T04:24:04;7.10;;;4.45;;
38911;SDS011;28444;48.056;14.408;2023-05-07T04:26:51;6.10;;;4.43;;
38911;SDS011;28444;48.056;14.408;2023-05-07T04:29:39;7.13;;;4.70;;
38911;SDS011;28444;48.056;14.408;2023-05-07T04:32:29;5.75;;;4.60;;
38911;SDS011;28444;48.056;14.408;2023-05-07T04:35:16;6.72;;;4.20;;
38911;SDS011;28444;48.056;14.408;2023-05-07T04:38:03;5.88;;;4.68;;
38911;SDS011;28444;48.056;14.408;2023-05-07T04:40:50;5.95;;;4.38;;
38911;SDS011;28444;48.056;14.408;2023-05-07T04:43:37;10.52;;;4.68;;
38911;SDS011;28444;48.056;14.408;2023-05-07T04:46:24;6.00;;;4.88;;
38911;SDS011;28444;48.056;14.408;2023-05-07T04:49:11;7.25;;;4.20;;
38911;SDS011;28444;48.056;14.408;2023-05-07T04:51:59;4.85;;;4.20;;
38911;SDS011;28444;48.056;14.408;2023-05-07T04:54:46;6.47;;;4.30;;
38911;SDS011;28444;48.056;14.408;2023-05-07T04:57:33;6.75;;;3.83;;
38911;SDS011;28444;48.056;14.408;2023-05-07T05:00:20;5.47;;;4.70;;
38911;SDS011;28444;48.056;14.408;2023-05-07T05:03:06;8.07;;;5.00;;
38911;SDS011;28444;48.056;14.408;2023-05-07T05:05:54;5.25;;;4.40;;
38911;SDS011;28444;48.056;14.408;2023-05-07T05:08:41;6.82;;;4.40;;
38911;SDS011;28444;48.056;14.408;2023-05-07T05:11:27;5.60;;;4.20;;
38911;SDS011;28444;48.056;14.408;2023-05-07T05:14:14;10.10;;;4.82;;
38911;SDS011;28444;48.056;14.408;2023-05-07T05:17:01;7.22;;;5.00;;
38911;SDS011;28444;48.056;14.408;2023-05-07T05:19:48;8.57;;;5.00;;
38911;SDS011;28444;48.056;14.408;2023-05-07T05:22:36;5.75;;;5.03;;
38911;SDS011;28444;48.056;14.408;2023-05-07T05:25:23;7.15;;;6.15;;
38911;SDS011;28444;48.056;14.408;2023-05-07T05:28:10;10.25;;;5.93;;
38911;SDS011;28444;48.056;14.408;2023-05-07T05:30:56;8.75;;;6.00;;
38911;SDS011;28444;48.056;14.408;2023-05-07T05:33:43;11.07;;;5.70;;
38911;SDS011;28444;48.056;14.408;2023-05-07T05:36:31;6.07;;;5.43;;
38911;SDS011;28444;48.056;14.408;2023-05-07T05:39:18;8.70;;;5.60;;
38911;SDS011;28444;48.056;14.408;2023-05-07T05:42:05;7.35;;;5.57;;
38911;SDS011;28444;48.056;14.408;2023-05-07T05:44:52;7.05;;;5.50;;
38911;SDS011;28444;48.056;14.408;2023-05-07T05:47:39;8.20;;;5.57;;
38911;SDS011;28444;48.056;14.408;2023-05-07T05:50:26;6.80;;;5.75;;
38911;SDS011;28444;48.056;14.408;2023-05-07T05:53:13;8.07;;;5.80;;
38911;SDS011;28444;48.056;14.408;2023-05-07T05:56:00;10.38;;;5.70;;
38911;SDS011;28444;48.056;14.408;2023-05-07T05:58:47;7.35;;;5.20;;
38911;SDS011;28444;48.056;14.408;2023-05-07T06:01:34;8.88;;;5.57;;
38911;SDS011;28444;48.056;14.408;2023-05-07T06:04:21;10.48;;;5.85;;
38911;SDS011;28444;48.056;14.408;2023-05-07T06:07:08;6.47;;;5.55;;
38911;SDS011;28444;48.056;14.408;2023-05-07T06:09:55;6.47;;;5.38;;
38911;SDS011;28444;48.056;14.408;2023-05-07T06:12:42;12.23;;;7.75;;
38911;SDS011;28444;48.056;14.408;2023-05-07T06:15:29;8.43;;;6.82;;
38911;SDS011;28444;48.056;14.408;2023-05-07T06:18:16;10.32;;;7.28;;
38911;SDS011;28444;48.056;14.408;2023-05-07T06:21:03;10.63;;;8.13;;
38911;SDS011;28444;48.056;14.408;2023-05-07T06:23:50;14.93;;;9.40;;
38911;SDS011;28444;48.056;14.408;2023-05-07T06:26:38;14.20;;;8.98;;
38911;SDS011;28444;48.056;14.408;2023-05-07T06:29:25;14.30;;;9.27;;
38911;SDS011;28444;48.056;14.408;2023-05-07T06:32:13;14.00;;;9.60;;
38911;SDS011;28444;48.056;14.408;2023-05-07T06:35:00;12.93;;;9.18;;
38911;SDS011;28444;48.056;14.408;2023-05-07T06:37:47;13.45;;;9.27;;
38911;SDS011;28444;48.056;14.408;2023-05-07T06:40:34;12.52;;;9.10;;
38911;SDS011;28444;48.056;14.408;2023-05-07T06:43:21;14.27;;;9.32;;
38911;SDS011;28444;48.056;14.408;2023-05-07T06:46:07;15.60;;;9.65;;
38911;SDS011;28444;48.056;14.408;2023-05-07T06:48:55;14.52;;;9.15;;
38911;SDS011;28444;48.056;14.408;2023-05-07T06:51:43;13.73;;;8.40;;
38911;SDS011;28444;48.056;14.408;2023-05-07T06:54:30;12.95;;;8.95;;
38911;SDS011;28444;48.056;14.408;2023-05-07T06:57:16;18.40;;;9.50;;
38911;SDS011;28444;48.056;14.408;2023-05-07T07:00:04;13.40;;;8.90;;
38911;SDS011;28444;48.056;14.408;2023-05-07T07:02:54;17.60;;;9.18;;
38911;SDS011;28444;48.056;14.408;2023-05-07T07:05:42;13.65;;;9.25;;
38911;SDS011;28444;48.056;14.408;2023-05-07T07:08:28;12.65;;;8.88;;
38911;SDS011;28444;48.056;14.408;2023-05-07T07:11:15;12.90;;;9.23;;
38911;SDS011;28444;48.056;14.408;2023-05-07T07:14:02;13.52;;;8.13;;
38911;SDS011;28444;48.056;14.408;2023-05-07T07:16:49;13.02;;;8.77;;
38911;SDS011;28444;48.056;14.408;2023-05-07T07:19:36;13.70;;;8.50;;
38911;SDS011;28444;48.056;14.408;2023-05-07T07:22:24;16.83;;;8.07;;
38911;SDS011;28444;48.056;14.408;2023-05-07T07:25:11;13.40;;;7.90;;
38911;SDS011;28444;48.056;14.408;2023-05-07T07:27:58;9.65;;;8.20;;
38911;SDS011;28444;48.056;14.408;2023-05-07T07:30:46;14.07;;;8.50;;
38911;SDS011;28444;48.056;14.408;2023-05-07T07:33:33;12.25;;;8.48;;
38911;SDS011;28444;48.056;14.408;2023-05-07T07:36:20;14.70;;;8.35;;
38911;SDS011;28444;48.056;14.408;2023-05-07T07:39:09;13.43;;;9.10;;
38911;SDS011;28444;48.056;14.408;2023-05-07T07:41:56;12.98;;;8.82;;
38911;SDS011;28444;48.056;14.408;2023-05-07T07:44:43;12.48;;;9.05;;
38911;SDS011;28444;48.056;14.408;2023-05-07T07:47:29;15.43;;;9.77;;
38911;SDS011;28444;48.056;14.408;2023-05-07T07:50:16;12.75;;;9.10;;
38911;SDS011;28444;48.056;14.408;2023-05-07T07:53:21;13.48;;;9.48;;
38911;SDS011;28444;48.056;14.408;2023-05-07T07:56:08;10.50;;;8.43;;
38911;SDS011;28444;48.056;14.408;2023-05-07T07:58:55;10.98;;;8.40;;
38911;SDS011;28444;48.056;14.408;2023-05-07T08:01:42;12.50;;;8.32;;
38911;SDS011;28444;48.056;14.408;2023-05-07T08:04:29;12.90;;;8.68;;
38911;SDS011;28444;48.056;14.408;2023-05-07T08:07:17;15.13;;;9.98;;
38911;SDS011;28444;48.056;14.408;2023-05-07T08:10:07;13.52;;;9.60;;
38911;SDS011;28444;48.056;14.408;2023-05-07T08:12:54;14.18;;;10.52;;
38911;SDS011;28444;48.056;14.408;2023-05-07T08:15:41;17.00;;;9.73;;
38911;SDS011;28444;48.056;14.408;2023-05-07T08:18:28;16.30;;;10.68;;
38911;SDS011;28444;48.056;14.408;2023-05-07T08:21:15;14.15;;;10.30;;
38911;SDS011;28444;48.056;14.408;2023-05-07T08:24:02;13.80;;;9.30;;
38911;SDS011;28444;48.056;14.408;2023-05-07T08:26:49;14.00;;;9.63;;
38911;SDS011;28444;48.056;14.408;2023-05-07T08:29:36;14.48;;;8.93;;
38911;SDS011;28444;48.056;14.408;2023-05-07T08:32:23;14.55;;;8.50;;
38911;SDS011;28444;48.056;14.408;2023-05-07T08:35:10;12.02;;;8.50;;
38911;SDS011;28444;48.056;14.408;2023-05-07T08:37:57;14.80;;;8.93;;
38911;SDS011;28444;48.056;14.408;2023-05-07T08:40:44;13.23;;;8.88;;
38911;SDS011;28444;48.056;14.408;2023-05-07T08:43:31;21.20;;;8.27;;
38911;SDS011;28444;48.056;14.408;2023-05-07T08:46:20;14.48;;;8.63;;
38911;SDS011;28444;48.056;14.408;2023-05-07T08:49:08;12.77;;;8.77;;
38911;SDS011;28444;48.056;14.408;2023-05-07T08:51:55;9.32;;;7.38;;
38911;SDS011;28444;48.056;14.408;2023-05-07T08:54:42;9.48;;;7.95;;
38911;SDS011;28444;48.056;14.408;2023-05-07T08:57:30;17.77;;;8.63;;
38911;SDS011;28444;48.056;14.408;2023-05-07T09:00:18;12.13;;;8.40;;
38911;SDS011;28444;48.056;14.408;2023-05-07T09:03:05;17.23;;;8.95;;
38911;SDS011;28444;48.056;14.408;2023-05-07T09:05:56;13.40;;;8.10;;
38911;SDS011;28444;48.056;14.408;2023-05-07T09:08:53;13.77;;;9.30;;
38911;SDS011;28444;48.056;14.408;2023-05-07T09:11:43;14.77;;;8.10;;
38911;SDS011;28444;48.056;14.408;2023-05-07T09:14:30;11.73;;;8.02;;
38911;SDS011;28444;48.056;14.408;2023-05-07T09:17:33;10.43;;;7.20;;
38911;SDS011;28444;48.056;14.408;2023-05-07T09:20:20;11.38;;;7.57;;
38911;SDS011;28444;48.056;14.408;2023-05-07T09:23:08;10.35;;;7.63;;
38911;SDS011;28444;48.056;14.408;2023-05-07T09:25:55;10.43;;;7.80;;
38911;SDS011;28444;48.056;14.408;2023-05-07T09:28:46;15.90;;;8.37;;
38911;SDS011;28444;48.056;14.408;2023-05-07T09:31:36;9.77;;;6.75;;
38911;SDS011;28444;48.056;14.408;2023-05-07T09:34:24;11.70;;;7.63;;
38911;SDS011;28444;48.056;14.408;2023-05-07T09:37:12;12.70;;;8.13;;
38911;SDS011;28444;48.056;14.408;2023-05-07T09:39:59;17.10;;;8.32;;
38911;SDS011;28444;48.056;14.408;2023-05-07T09:42:46;10.18;;;7.75;;
38911;SDS011;28444;48.056;14.408;2023-05-07T09:45:33;11.38;;;8.60;;
38911;SDS011;28444;48.056;14.408;2023-05-07T09:48:20;14.07;;;7.50;;
38911;SDS011;28444;48.056;14.408;2023-05-07T09:54:37;10.10;;;6.22;;
38911;SDS011;28444;48.056;14.408;2023-05-07T10:00:17;8.70;;;6.07;;
38911;SDS011;28444;48.056;14.408;2023-05-07T10:03:06;9.30;;;6.43;;
38911;SDS011;28444;48.056;14.408;2023-05-07T10:05:55;10.75;;;5.70;;
38911;SDS011;28444;48.056;14.408;2023-05-07T10:08:44;8.20;;;5.88;;
38911;SDS011;28444;48.056;14.408;2023-05-07T10:11:33;8.18;;;4.93;;
38911;SDS011;28444;48.056;14.408;2023-05-07T10:14:21;7.82;;;5.10;;
38911;SDS011;28444;48.056;14.408;2023-05-07T10:17:09;9.25;;;5.90;;
38911;SDS011;28444;48.056;14.408;2023-05-07T10:19:58;6.25;;;4.57;;
38911;SDS011;28444;48.056;14.408;2023-05-07T10:22:45;6.97;;;5.35;;
38911;SDS011;28444;48.056;14.408;2023-05-07T10:25:34;5.35;;;4.28;;
38911;SDS011;28444;48.056;14.408;2023-05-07T10:28:21;7.75;;;5.07;;
38911;SDS011;28444;48.056;14.408;2023-05-07T10:34:22;10.02;;;5.60;;
38911;SDS011;28444;48.056;14.408;2023-05-07T10:37:12;8.20;;;5.43;;
38911;SDS011;28444;48.056;14.408;2023-05-07T10:40:00;11.23;;;6.30;;
38911;SDS011;28444;48.056;14.408;2023-05-07T10:42:54;6.30;;;5.35;;
38911;SDS011;28444;48.056;14.408;2023-05-07T10:49:07;9.85;;;5.45;;
38911;SDS011;28444;48.056;14.408;2023-05-07T10:58:37;7.43;;;6.15;;
38911;SDS011;28444;48.056;14.408;2023-05-07T11:01:49;10.55;;;5.78;;
38911;SDS011;28444;48.056;14.408;2023-05-07T11:04:42;8.25;;;5.57;;
38911;SDS011;28444;48.056;14.408;2023-05-07T11:07:30;6.72;;;5.55;;
38911;SDS011;28444;48.056;14.408;2023-05-07T11:10:17;8.82;;;5.47;;
38911;SDS011;28444;48.056;14.408;2023-05-07T11:13:04;10.20;;;5.43;;
38911;SDS011;28444;48.056;14.408;2023-05-07T11:15:52;11.55;;;6.20;;
38911;SDS011;28444;48.056;14.408;2023-05-07T11:18:49;10.27;;;5.45;;
38911;SDS011;28444;48.056;14.408;2023-05-07T11:21:38;9.85;;;5.78;;
38911;SDS011;28444;48.056;14.408;2023-05-07T11:24:26;8.32;;;5.07;;
38911;SDS011;28444;48.056;14.408;2023-05-07T11:27:13;10.25;;;5.40;;
38911;SDS011;28444;48.056;14.408;2023-05-07T11:30:00;10.48;;;4.85;;
38911;SDS011;28444;48.056;14.408;2023-05-07T11:32:47;6.10;;;4.93;;
38911;SDS011;28444;48.056;14.408;2023-05-07T11:35:35;7.60;;;4.95;;
38911;SDS011;28444;48.056;14.408;2023-05-07T11:38:23;11.07;;;4.55;;
38911;SDS011;28444;48.056;14.408;2023-05-07T11:41:11;6.07;;;4.63;;
38911;SDS011;28444;48.056;14.408;2023-05-07T11:43:58;6.40;;;4.55;;
38911;SDS011;28444;48.056;14.408;2023-05-07T11:46:46;7.38;;;5.20;;
38911;SDS011;28444;48.056;14.408;2023-05-07T11:49:33;6.30;;;4.65;;
38911;SDS011;28444;48.056;14.408;2023-05-07T11:52:21;6.40;;;4.85;;
38911;SDS011;28444;48.056;14.408;2023-05-07T11:55:09;7.60;;;4.43;;
38911;SDS011;28444;48.056;14.408;2023-05-07T11:57:57;5.60;;;4.53;;
38911;SDS011;28444;48.056;14.408;2023-05-07T12:00:50;10.07;;;4.13;;
38911;SDS011;28444;48.056;14.408;2023-05-07T12:03:41;6.95;;;3.92;;
38911;SDS011;28444;48.056;14.408;2023-05-07T12:06:30;6.57;;;4.15;;
38911;SDS011;28444;48.056;14.408;2023-05-07T12:09:17;4.88;;;4.32;;
38911;SDS011;28444;48.056;14.408;2023-05-07T12:12:04;5.55;;;3.83;;
38911;SDS011;28444;48.056;14.408;2023-05-07T12:14:51;7.72;;;4.30;;
38911;SDS011;28444;48.056;14.408;2023-05-07T12:17:38;5.88;;;4.07;;
38911;SDS011;28444;48.056;14.408;2023-05-07T12:20:27;7.72;;;3.92;;
38911;SDS011;28444;48.056;14.408;2023-05-07T12:23:14;5.43;;;4.00;;
38911;SDS011;28444;48.056;14.408;2023-05-07T12:26:01;5.00;;;3.85;;
38911;SDS011;28444;48.056;14.408;2023-05-07T12:28:52;4.13;;;3.63;;
38911;SDS011;28444;48.056;14.408;2023-05-07T12:31:42;4.60;;;3.63;;
38911;SDS011;28444;48.056;14.408;2023-05-07T12:34:30;7.65;;;4.25;;
38911;SDS011;28444;48.056;14.408;2023-05-07T12:37:22;12.88;;;4.65;;
38911;SDS011;28444;48.056;14.408;2023-05-07T12:40:11;5.68;;;4.40;;
38911;SDS011;28444;48.056;14.408;2023-05-07T12:42:58;6.53;;;4.57;;
38911;SDS011;28444;48.056;14.408;2023-05-07T12:45:46;6.57;;;4.05;;
38911;SDS011;28444;48.056;14.408;2023-05-07T12:48:38;6.57;;;4.85;;
38911;SDS011;28444;48.056;14.408;2023-05-07T12:51:25;5.45;;;4.22;;
38911;SDS011;28444;48.056;14.408;2023-05-07T12:54:12;7.22;;;4.30;;
38911;SDS011;28444;48.056;14.408;2023-05-07T12:57:02;7.85;;;4.53;;
38911;SDS011;28444;48.056;14.408;2023-05-07T12:59:50;9.82;;;3.97;;
38911;SDS011;28444;48.056;14.408;2023-05-07T13:02:40;5.60;;;4.43;;
38911;SDS011;28444;48.056;14.408;2023-05-07T13:05:28;9.88;;;4.63;;
38911;SDS011;28444;48.056;14.408;2023-05-07T13:08:24;7.53;;;3.95;;
38911;SDS011;28444;48.056;14.408;2023-05-07T13:11:13;6.53;;;4.05;;
38911;SDS011;28444;48.056;14.408;2023-05-07T13:14:00;6.50;;;4.15;;
38911;SDS011;28444;48.056;14.408;2023-05-07T13:16:47;10.88;;;4.78;;
38911;SDS011;28444;48.056;14.408;2023-05-07T13:19:34;7.25;;;4.05;;
38911;SDS011;28444;48.056;14.408;2023-05-07T13:22:23;7.05;;;4.43;;
38911;SDS011;28444;48.056;14.408;2023-05-07T13:25:10;10.30;;;4.53;;
38911;SDS011;28444;48.056;14.408;2023-05-07T13:27:58;5.65;;;4.80;;
38911;SDS011;28444;48.056;14.408;2023-05-07T13:30:56;8.23;;;5.35;;
38911;SDS011;28444;48.056;14.408;2023-05-07T13:33:43;8.95;;;5.22;;
38911;SDS011;28444;48.056;14.408;2023-05-07T13:36:30;7.57;;;5.50;;
38911;SDS011;28444;48.056;14.408;2023-05-07T13:39:19;7.82;;;5.38;;
38911;SDS011;28444;48.056;14.408;2023-05-07T13:42:06;6.22;;;4.68;;
38911;SDS011;28444;48.056;14.408;2023-05-07T13:44:53;8.10;;;5.03;;
38911;SDS011;28444;48.056;14.408;2023-05-07T13:47:41;10.10;;;5.47;;
38911;SDS011;28444;48.056;14.408;2023-05-07T13:50:28;10.13;;;6.45;;
38911;SDS011;28444;48.056;14.408;2023-05-07T13:53:16;7.95;;;5.57;;
38911;SDS011;28444;48.056;14.408;2023-05-07T13:56:04;11.57;;;6.00;;
38911;SDS011;28444;48.056;14.408;2023-05-07T13:58:52;8.02;;;6.25;;
38911;SDS011;28444;48.056;14.408;2023-05-07T14:01:46;12.35;;;7.55;;
38911;SDS011;28444;48.056;14.408;2023-05-07T14:04:33;10.75;;;7.38;;
38911;SDS011;28444;48.056;14.408;2023-05-07T14:07:20;10.65;;;6.70;;
38911;SDS011;28444;48.056;14.408;2023-05-07T14:10:07;12.80;;;6.95;;
38911;SDS011;28444;48.056;14.408;2023-05-07T14:12:56;17.17;;;7.53;;
38911;SDS011;28444;48.056;14.408;2023-05-07T14:15:43;11.60;;;7.70;;
38911;SDS011;28444;48.056;14.408;2023-05-07T14:18:33;9.52;;;8.05;;
38911;SDS011;28444;48.056;14.408;2023-05-07T14:21:21;11.18;;;8.98;;
38911;SDS011;28444;48.056;14.408;2023-05-07T14:24:07;19.45;;;8.82;;
38911;SDS011;28444;48.056;14.408;2023-05-07T14:26:57;12.55;;;7.70;;
38911;SDS011;28444;48.056;14.408;2023-05-07T14:29:44;11.82;;;8.10;;
38911;SDS011;28444;48.056;14.408;2023-05-07T14:32:32;16.27;;;9.23;;
38911;SDS011;28444;48.056;14.408;2023-05-07T14:35:19;11.70;;;8.73;;
38911;SDS011;28444;48.056;14.408;2023-05-07T14:38:06;15.80;;;8.85;;
38911;SDS011;28444;48.056;14.408;2023-05-07T14:40:53;28.08;;;9.13;;
38911;SDS011;28444;48.056;14.408;2023-05-07T14:43:42;17.23;;;11.60;;
38911;SDS011;28444;48.056;14.408;2023-05-07T14:46:30;12.82;;;9.75;;
38911;SDS011;28444;48.056;14.408;2023-05-07T14:49:17;19.20;;;9.65;;
38911;SDS011;28444;48.056;14.408;2023-05-07T14:52:04;15.55;;;10.30;;
38911;SDS011;28444;48.056;14.408;2023-05-07T14:54:52;15.57;;;9.90;;
38911;SDS011;28444;48.056;14.408;2023-05-07T14:57:39;13.63;;;9.43;;
38911;SDS011;28444;48.056;14.408;2023-05-07T15:00:26;10.63;;;8.77;;
38911;SDS011;28444;48.056;14.408;2023-05-07T15:03:14;12.23;;;9.60;;
38911;SDS011;28444;48.056;14.408;2023-05-07T15:06:02;14.20;;;9.55;;
38911;SDS011;28444;48.056;14.408;2023-05-07T15:08:49;11.80;;;8.70;;
38911;SDS011;28444;48.056;14.408;2023-05-07T15:11:36;18.48;;;9.13;;
38911;SDS011;28444;48.056;14.408;2023-05-07T15:14:22;13.48;;;9.13;;
38911;SDS011;28444;48.056;14.408;2023-05-07T15:17:09;12.15;;;9.35;;
38911;SDS011;28444;48.056;14.408;2023-05-07T15:19:56;11.50;;;9.50;;
38911;SDS011;28444;48.056;14.408;2023-05-07T15:22:43;16.10;;;9.65;;
38911;SDS011;28444;48.056;14.408;2023-05-07T15:25:31;12.32;;;9.15;;
38911;SDS011;28444;48.056;14.408;2023-05-07T15:28:19;13.57;;;9.75;;
38911;SDS011;28444;48.056;14.408;2023-05-07T15:31:06;10.80;;;8.80;;
38911;SDS011;28444;48.056;14.408;2023-05-07T15:33:53;13.45;;;8.80;;
38911;SDS011;28444;48.056;14.408;2023-05-07T15:36:41;15.57;;;9.63;;
38911;SDS011;28444;48.056;14.408;2023-05-07T15:39:27;12.73;;;8.68;;
38911;SDS011;28444;48.056;14.408;2023-05-07T15:42:14;12.38;;;8.90;;
38911;SDS011;28444;48.056;14.408;2023-05-07T15:45:01;14.25;;;10.15;;
38911;SDS011;28444;48.056;14.408;2023-05-07T15:47:48;12.45;;;9.15;;
38911;SDS011;28444;48.056;14.408;2023-05-07T15:50:36;12.05;;;8.07;;
38911;SDS011;28444;48.056;14.408;2023-05-07T15:53:23;15.40;;;8.75;;
38911;SDS011;28444;48.056;14.408;2023-05-07T15:56:10;13.60;;;9.27;;
38911;SDS011;28444;48.056;14.408;2023-05-07T15:58:57;9.85;;;7.80;;
38911;SDS011;28444;48.056;14.408;2023-05-07T16:01:45;11.85;;;8.68;;
38911;SDS011;28444;48.056;14.408;2023-05-07T16:04:32;13.65;;;8.90;;
38911;SDS011;28444;48.056;14.408;2023-05-07T16:07:19;12.45;;;9.80;;
38911;SDS011;28444;48.056;14.408;2023-05-07T16:10:06;13.90;;;8.77;;
38911;SDS011;28444;48.056;14.408;2023-05-07T16:12:55;14.27;;;8.93;;
38911;SDS011;28444;48.056;14.408;2023-05-07T16:15:42;14.50;;;8.27;;
38911;SDS011;28444;48.056;14.408;2023-05-07T16:18:28;11.98;;;8.35;;
38911;SDS011;28444;48.056;14.408;2023-05-07T16:21:15;13.43;;;7.82;;
38911;SDS011;28444;48.056;14.408;2023-05-07T16:24:03;12.13;;;8.30;;
38911;SDS011;28444;48.056;14.408;2023-05-07T16:26:50;10.18;;;7.72;;
38911;SDS011;28444;48.056;14.408;2023-05-07T16:29:37;11.13;;;8.32;;
38911;SDS011;28444;48.056;14.408;2023-05-07T16:32:24;11.57;;;8.38;;
38911;SDS011;28444;48.056;14.408;2023-05-07T16:35:13;10.00;;;8.65;;
38911;SDS011;28444;48.056;14.408;2023-05-07T16:38:00;13.90;;;8.70;;
38911;SDS011;28444;48.056;14.408;2023-05-07T16:40:55;12.75;;;9.15;;
38911;SDS011;28444;48.056;14.408;2023-05-07T16:43:42;8.77;;;7.88;;
38911;SDS011;28444;48.056;14.408;2023-05-07T16:46:29;17.67;;;8.95;;
38911;SDS011;28444;48.056;14.408;2023-05-07T16:49:16;11.77;;;8.98;;